Eldoret Aistrip Airport


Codes: HKED/
Name: Eldoret Aistrip Airport
City: Eldoret Aistrip
Country: Kenya
Elevation: 7050 ft.

Photos at Eldoret Aistrip Airport


   Photos courtesy of SpottingLog. You can add your own sightings and photos by signing up for a free trial today.



No photos found.

Weather at Eldoret Aistrip Airport


Time (UTC)DescriptionTempratureWindCloud coverageVisibilityPressureHumidity
16-Jun-2024 03:00Scattered Clouds12°C2 mph, E41%10000m1015hPa85%
16-Jun-2024 06:00Broken Clouds15°C0 mph, E52%10000m1016hPa76%
16-Jun-2024 09:00Scattered Clouds21°C4 mph, NW27%10000m1013hPa57%
16-Jun-2024 12:00Scattered Clouds22°C7 mph, NW49%10000m1011hPa51%
16-Jun-2024 15:00Light Rain17°C4 mph, W94%10000m1014hPa83%
16-Jun-2024 18:00Light Rain15°C2 mph, SW81%10000m1016hPa84%
16-Jun-2024 21:00Light Rain15°C2 mph, SE100%10000m1016hPa82%
17-Jun-2024 00:00Overcast Clouds14°C2 mph, E98%10000m1015hPa84%
17-Jun-2024 03:00Overcast Clouds14°C4 mph, NE95%10000m1017hPa82%
17-Jun-2024 06:00Overcast Clouds17°C4 mph, NE97%10000m1018hPa71%
17-Jun-2024 09:00Light Rain20°C4 mph, NW88%10000m1016hPa60%
17-Jun-2024 12:00Light Rain19°C4 mph, W72%10000m1014hPa68%
17-Jun-2024 15:00Moderate Rain17°C4 mph, W88%8468m1015hPa84%
17-Jun-2024 18:00Light Rain13°C2 mph, SE57%10000m1018hPa87%
17-Jun-2024 21:00Light Rain13°C4 mph, S59%10000m1017hPa89%
18-Jun-2024 00:00Scattered Clouds12°C2 mph, SE33%10000m1017hPa88%
18-Jun-2024 03:00Clear Sky12°C2 mph, E1%10000m1017hPa84%
18-Jun-2024 06:00Clear Sky17°C2 mph, NE4%10000m1017hPa67%
18-Jun-2024 09:00Scattered Clouds22°C2 mph, N44%10000m1015hPa44%
18-Jun-2024 12:00Scattered Clouds23°C7 mph, NE25%10000m1012hPa42%
18-Jun-2024 15:00Light Rain18°C2 mph, SW22%10000m1014hPa72%
18-Jun-2024 18:00Light Rain13°C4 mph, SE19%10000m1018hPa82%
18-Jun-2024 21:00Scattered Clouds13°C4 mph, SE39%10000m1018hPa81%
19-Jun-2024 00:00Scattered Clouds13°C2 mph, E26%10000m1016hPa77%
19-Jun-2024 03:00Clear Sky12°C2 mph, E3%10000m1016hPa79%
19-Jun-2024 06:00Clear Sky18°C4 mph, NE2%10000m1017hPa64%
19-Jun-2024 09:00Clear Sky21°C4 mph, N0%10000m1015hPa50%
19-Jun-2024 12:00Clear Sky23°C4 mph, NE3%10000m1012hPa43%
19-Jun-2024 15:00Light Rain18°C4 mph, W44%10000m1014hPa76%
19-Jun-2024 18:00Scattered Clouds13°C4 mph, SE39%10000m1017hPa83%
19-Jun-2024 21:00Broken Clouds13°C4 mph, SE76%10000m1018hPa79%
20-Jun-2024 00:00Scattered Clouds12°C4 mph, SE49%10000m1016hPa80%
20-Jun-2024 03:00Broken Clouds12°C2 mph, E67%10000m1017hPa79%
20-Jun-2024 06:00Broken Clouds18°C2 mph, NE83%10000m1017hPa66%
20-Jun-2024 09:00Light Rain21°C4 mph, N74%10000m1016hPa54%
20-Jun-2024 12:00Overcast Clouds21°C7 mph, N87%10000m1014hPa53%
20-Jun-2024 15:00Light Rain17°C4 mph, W87%10000m1015hPa76%
20-Jun-2024 18:00Light Rain13°C2 mph, SE77%10000m1018hPa85%
20-Jun-2024 21:00Broken Clouds13°C4 mph, SE63%10000m1019hPa86%
21-Jun-2024 00:00Broken Clouds12°C4 mph, SE54%10000m1017hPa83%